createdAt,value
2022-12-08T00:05:16.234Z,23.30
2022-12-08T00:10:57.436Z,25.40
2022-12-08T00:16:11.299Z,26.88
2022-12-08T00:21:16.926Z,25.70
2022-12-08T00:26:29.866Z,22.58
2022-12-08T00:31:35.589Z,26.50
2022-12-08T00:36:42.971Z,25.35
2022-12-08T00:42:09.606Z,26.45
2022-12-08T00:47:23.456Z,25.23
2022-12-08T00:52:30.282Z,27.30
2022-12-08T00:57:41.251Z,22.42
2022-12-08T01:02:46.345Z,22.05
2022-12-08T01:07:52.272Z,23.75
2022-12-08T01:13:08.503Z,25.25
2022-12-08T01:18:13.720Z,24.63
2022-12-08T01:23:23.558Z,23.95
2022-12-08T01:28:31.588Z,26.08
2022-12-08T01:33:37.001Z,24.48
2022-12-08T01:38:42.416Z,24.27
2022-12-08T01:43:59.698Z,22.98
2022-12-08T01:49:12.903Z,24.85
2022-12-08T01:54:21.049Z,24.63
2022-12-08T01:59:43.077Z,25.35
2022-12-08T02:04:49.910Z,27.17
2022-12-08T02:09:56.930Z,24.27
2022-12-08T02:15:05.802Z,25.15
2022-12-08T02:20:27.251Z,23.92
2022-12-08T02:25:39.603Z,32.90
2022-12-08T02:30:52.778Z,36.30
2022-12-08T02:36:04.556Z,30.48
2022-12-08T02:41:27.609Z,24.63
2022-12-08T02:46:36.878Z,29.40
2022-12-08T02:51:44.901Z,22.13
2022-12-08T02:57:09.720Z,28.23
2022-12-08T03:02:32.599Z,26.48
2022-12-08T03:07:44.647Z,31.27
2022-12-08T03:12:53.234Z,30.15
2022-12-08T03:18:01.127Z,32.03
2022-12-08T03:23:11.211Z,31.50
2022-12-08T03:28:16.531Z,30.15
2022-12-08T03:33:26.051Z,27.75
2022-12-08T03:38:40.595Z,29.45
2022-12-08T03:43:45.942Z,39.15
2022-12-08T03:48:51.311Z,46.60
2022-12-08T03:53:59.574Z,36.63
2022-12-08T03:59:05.140Z,26.45
2022-12-08T04:04:10.421Z,32.47
2022-12-08T04:09:18.277Z,36.25
2022-12-08T04:14:23.724Z,35.30
2022-12-08T04:19:29.091Z,29.88
2022-12-08T04:24:37.993Z,44.80
2022-12-08T04:29:43.365Z,36.70
2022-12-08T04:34:51.221Z,43.60
2022-12-08T04:39:59.083Z,40.05
2022-12-08T04:45:04.478Z,33.90
2022-12-08T04:50:11.204Z,33.38
2022-12-08T04:55:19.457Z,36.72
2022-12-08T05:00:24.714Z,30.92
2022-12-08T05:05:30.026Z,23.30
2022-12-08T05:10:39.900Z,29.88
2022-12-08T05:15:45.283Z,25.48
2022-12-08T05:20:50.540Z,26.23
2022-12-08T05:25:58.311Z,26.52
2022-12-08T05:31:03.720Z,27.27
2022-12-08T05:36:10.454Z,24.77
2022-12-08T05:41:20.480Z,24.38
2022-12-08T05:46:25.900Z,21.92
2022-12-08T05:51:31.582Z,24.25
2022-12-08T05:56:40.548Z,22.05
2022-12-08T06:01:47.361Z,23.08
2022-12-08T06:06:52.725Z,19.13
2022-12-08T06:12:07.403Z,20.15
2022-12-08T06:17:12.695Z,19.50
2022-12-08T06:22:18.016Z,21.63
2022-12-08T06:27:25.932Z,17.65
2022-12-08T06:32:32.128Z,20.10
2022-12-08T06:37:37.626Z,18.90
2022-12-08T06:42:47.547Z,19.73
2022-12-08T06:47:52.852Z,19.10
2022-12-08T06:53:04.784Z,17.80
2022-12-08T06:58:13.712Z,14.73
2022-12-08T07:03:19.315Z,14.68
2022-12-08T07:08:24.751Z,16.70
2022-12-08T07:13:32.877Z,21.58
2022-12-08T07:18:38.459Z,20.67
2022-12-08T07:23:44.656Z,20.73
2022-12-08T07:28:52.597Z,17.98
2022-12-08T07:33:58.547Z,17.35
2022-12-08T07:39:03.828Z,26.30
2022-12-08T07:44:12.272Z,15.43
2022-12-08T07:49:17.852Z,18.25
2022-12-08T07:54:23.101Z,21.38
2022-12-08T07:59:31.181Z,19.73
2022-12-08T08:04:36.412Z,18.60
2022-12-08T08:09:41.973Z,18.85
2022-12-08T08:14:49.839Z,19.88
2022-12-08T08:19:55.129Z,22.98
2022-12-08T08:25:00.517Z,24.83
2022-12-08T08:30:14.005Z,26.60
2022-12-08T08:35:22.004Z,20.27
2022-12-08T08:40:27.266Z,25.17
2022-12-08T08:45:35.405Z,29.70
2022-12-08T08:50:40.687Z,16.75
2022-12-08T08:55:45.950Z,19.45
2022-12-08T09:12:17.135Z,19.70
2022-12-08T09:28:58.282Z,19.95
2022-12-08T09:40:21.330Z,24.15
2022-12-08T09:46:09.605Z,24.73
2022-12-08T09:51:57.831Z,20.45
2022-12-08T10:16:55.982Z,16.23
2022-12-08T12:43:54.993Z,32.30
2022-12-08T12:49:44.480Z,29.02
2022-12-08T12:55:57.464Z,20.98
2022-12-08T13:01:30.352Z,23.05
2022-12-08T13:06:50.007Z,20.05
2022-12-08T13:12:00.268Z,18.08
2022-12-08T13:17:49.517Z,24.55
2022-12-08T13:24:01.115Z,21.15
2022-12-08T13:35:50.145Z,20.90
2022-12-08T14:10:28.390Z,21.80
2022-12-08T14:16:37.302Z,20.92
2022-12-08T14:28:53.488Z,23.73
2022-12-08T14:34:01.044Z,17.30
2022-12-08T14:39:10.281Z,18.15
2022-12-08T14:44:27.560Z,16.95
2022-12-08T14:49:37.649Z,16.80
2022-12-08T14:54:45.149Z,16.85
2022-12-08T14:59:54.716Z,20.05
2022-12-08T15:05:10.176Z,16.05
2022-12-08T15:10:29.040Z,21.48
2022-12-08T15:16:04.341Z,21.52
2022-12-08T15:21:15.866Z,16.88
2022-12-08T15:26:25.078Z,23.75
2022-12-08T15:31:35.952Z,22.40
2022-12-08T15:36:43.948Z,25.95
2022-12-08T15:48:15.651Z,33.00
2022-12-08T15:53:26.743Z,30.42
2022-12-08T16:09:37.408Z,28.58
2022-12-08T16:26:16.167Z,52.50
2022-12-08T16:31:29.496Z,43.75
2022-12-08T16:36:41.075Z,49.03
2022-12-08T16:42:02.164Z,72.82
2022-12-08T16:47:12.712Z,66.22
2022-12-08T16:52:18.644Z,57.85
2022-12-08T16:57:27.659Z,44.30
2022-12-08T17:02:34.125Z,60.65
2022-12-08T17:07:41.224Z,91.55
2022-12-08T17:12:53.200Z,75.80
2022-12-08T17:19:03.224Z,94.25
2022-12-08T17:24:38.482Z,54.70
2022-12-08T17:29:50.061Z,78.35
2022-12-08T17:34:56.300Z,40.60
2022-12-08T17:40:04.822Z,40.60
2022-12-08T17:45:22.525Z,54.95
2022-12-08T17:50:35.272Z,66.90
2022-12-08T17:55:46.380Z,76.47
2022-12-08T18:00:56.269Z,50.50
2022-12-08T18:06:15.726Z,33.50
2022-12-08T18:11:23.540Z,36.65
2022-12-08T18:16:32.442Z,27.70
2022-12-08T18:21:38.958Z,26.13
2022-12-08T18:26:46.919Z,31.38
2022-12-08T18:31:56.176Z,32.03
2022-12-08T18:37:08.712Z,29.73
2022-12-08T18:42:28.842Z,31.48
2022-12-08T18:47:58.740Z,47.90
2022-12-08T18:53:17.536Z,68.80
2022-12-08T18:58:29.733Z,76.28
2022-12-08T19:04:27.786Z,89.50
2022-12-08T19:09:15.636Z,64.25
2022-12-08T19:14:42.523Z,95.25
2022-12-08T19:19:55.535Z,84.78
2022-12-08T19:25:02.769Z,65.80
2022-12-08T19:30:13.813Z,56.92
2022-12-08T19:35:22.494Z,58.90
2022-12-08T19:40:40.808Z,70.07
2022-12-08T19:45:47.799Z,64.65
2022-12-08T19:50:57.266Z,64.18
2022-12-08T19:56:03.425Z,67.57
2022-12-08T20:01:12.233Z,67.13
2022-12-08T20:06:31.109Z,68.70
2022-12-08T20:11:37.040Z,72.80
2022-12-08T20:16:43.780Z,68.75
2022-12-08T20:21:53.894Z,67.07
2022-12-08T20:27:00.883Z,64.80
2022-12-08T20:32:11.012Z,71.07
2022-12-08T20:37:22.622Z,67.28
2022-12-08T20:42:28.942Z,66.60
2022-12-08T20:47:35.086Z,73.13
2022-12-08T20:52:43.965Z,58.28
2022-12-08T20:57:52.033Z,68.20
2022-12-08T21:02:58.586Z,75.13
2022-12-08T21:08:07.960Z,59.33
2022-12-08T21:13:14.232Z,65.32
2022-12-08T21:18:20.834Z,67.82
2022-12-08T21:23:29.846Z,65.40
2022-12-08T21:28:36.763Z,69.55
2022-12-08T21:33:43.106Z,81.32
2022-12-08T21:39:00.457Z,75.45
2022-12-08T21:44:06.998Z,75.82
2022-12-08T21:49:13.244Z,92.40
2022-12-08T21:54:21.806Z,98.47
2022-12-08T21:59:27.834Z,92.40
2022-12-08T22:04:34.242Z,82.38
2022-12-08T22:09:43.352Z,104.90
2022-12-08T22:14:51.182Z,82.45
2022-12-08T22:19:57.213Z,82.60
2022-12-08T22:25:06.115Z,77.85
2022-12-08T22:30:16.026Z,71.15
2022-12-08T22:35:22.174Z,77.95
2022-12-08T22:40:30.568Z,88.30
2022-12-08T22:50:42.860Z,97.70
2022-12-08T22:55:52.303Z,110.10
2022-12-08T23:01:02.592Z,102.97
2022-12-08T23:06:16.365Z,112.20
2022-12-08T23:11:26.671Z,83.10
2022-12-08T23:16:35.483Z,86.28
2022-12-08T23:21:41.712Z,69.43
2022-12-08T23:27:03.810Z,72.45
2022-12-08T23:32:14.626Z,75.88
2022-12-08T23:37:22.838Z,77.50
2022-12-08T23:42:35.139Z,77.85
2022-12-08T23:47:40.225Z,77.55
2022-12-08T23:52:49.085Z,75.95
2022-12-08T23:57:56.858Z,87.90
